createdAt,value
2022-08-14T00:01:36.294Z,99.90
2022-08-14T00:04:03.331Z,99.90
2022-08-14T00:06:50.078Z,99.90
2022-08-14T00:09:16.941Z,99.90
2022-08-14T00:11:44.700Z,99.90
2022-08-14T00:14:12.410Z,99.90
2022-08-14T00:16:44.992Z,99.90
2022-08-14T00:19:18.522Z,99.90
2022-08-14T00:21:50.885Z,99.90
2022-08-14T00:24:28.139Z,99.90
2022-08-14T00:27:01.901Z,99.90
2022-08-14T00:29:33.029Z,99.90
2022-08-14T00:32:52.007Z,99.90
2022-08-14T00:34:56.478Z,99.90
2022-08-14T00:37:23.828Z,99.90
2022-08-14T00:39:51.098Z,99.90
2022-08-14T00:42:55.442Z,99.90
2022-08-14T00:45:11.572Z,99.90
2022-08-14T00:47:45.047Z,99.90
2022-08-14T00:50:17.533Z,99.90
2022-08-14T00:52:50.884Z,99.90
2022-08-14T00:55:20.970Z,99.90
2022-08-14T00:58:11.455Z,99.90
2022-08-14T01:00:47.510Z,99.90
2022-08-14T01:03:26.527Z,99.90
2022-08-14T01:05:59.059Z,99.90
2022-08-14T01:08:58.131Z,99.90
2022-08-14T01:11:19.115Z,99.90
2022-08-14T01:13:55.749Z,99.90
2022-08-14T01:16:28.030Z,99.90
2022-08-14T01:19:16.193Z,99.90
2022-08-14T01:21:47.016Z,99.90
2022-08-14T01:24:28.928Z,99.90
2022-08-14T01:27:00.016Z,99.90
2022-08-14T01:29:59.034Z,99.90
2022-08-14T01:32:22.972Z,99.90
2022-08-14T01:35:20.920Z,99.90
2022-08-14T01:37:56.079Z,99.90
2022-08-14T01:40:36.672Z,99.90
2022-08-14T01:43:18.640Z,99.90
2022-08-14T01:45:57.859Z,99.90
2022-08-14T01:48:37.440Z,99.90
2022-08-14T01:51:06.094Z,99.90
2022-08-14T01:53:54.824Z,99.90
2022-08-14T01:56:39.394Z,99.90
2022-08-14T01:59:38.012Z,99.90
2022-08-14T02:02:19.690Z,99.90
2022-08-14T02:04:57.273Z,99.90
2022-08-14T02:07:34.534Z,99.90
2022-08-14T02:10:15.645Z,99.90
2022-08-14T02:12:48.922Z,99.90
2022-08-14T02:15:21.811Z,99.90
2022-08-14T02:17:50.449Z,99.90
2022-08-14T02:20:23.501Z,99.90
2022-08-14T02:22:54.599Z,99.90
2022-08-14T02:25:22.695Z,99.90
2022-08-14T02:28:23.734Z,99.90
2022-08-14T02:30:43.144Z,99.90
2022-08-14T02:33:10.736Z,99.90
2022-08-14T02:35:41.331Z,99.90
2022-08-14T02:38:11.402Z,99.90
2022-08-14T02:40:39.141Z,99.90
2022-08-14T02:43:07.852Z,99.90
2022-08-14T02:45:38.382Z,99.90
2022-08-14T02:49:01.809Z,99.90
2022-08-14T02:51:01.427Z,99.90
2022-08-14T02:53:33.495Z,99.90
2022-08-14T02:56:02.906Z,99.90
2022-08-14T02:58:33.358Z,99.90
2022-08-14T03:01:01.438Z,99.90
2022-08-14T03:03:31.804Z,99.90
2022-08-14T03:06:02.635Z,99.90
2022-08-14T03:08:32.088Z,99.90
2022-08-14T03:11:06.593Z,99.90
2022-08-14T03:13:35.727Z,99.90
2022-08-14T03:16:09.085Z,99.90
2022-08-14T03:18:48.526Z,99.90
2022-08-14T03:21:22.030Z,99.90
2022-08-14T03:23:51.039Z,99.90
2022-08-14T03:26:30.242Z,99.90
2022-08-14T03:29:00.964Z,99.90
2022-08-14T03:31:29.265Z,99.90
2022-08-14T03:33:56.816Z,99.90
2022-08-14T03:37:29.034Z,99.90
2022-08-14T03:39:22.061Z,99.90
2022-08-14T03:41:55.344Z,99.90
2022-08-14T03:45:19.936Z,99.90
2022-08-14T03:47:12.058Z,99.90
2022-08-14T03:49:42.241Z,99.90
2022-08-14T03:52:38.367Z,99.90
2022-08-14T03:54:58.826Z,99.90
2022-08-14T03:57:25.588Z,99.90
2022-08-14T03:59:52.411Z,99.90
2022-08-14T04:02:32.360Z,99.90
2022-08-14T04:05:11.599Z,99.90
2022-08-14T04:07:49.406Z,99.90
2022-08-14T04:10:17.640Z,99.90
2022-08-14T04:12:59.992Z,99.90
2022-08-14T04:15:30.885Z,99.90
2022-08-14T04:18:02.373Z,99.90
2022-08-14T04:20:31.333Z,99.90
2022-08-14T04:22:58.128Z,99.90
2022-08-14T04:25:24.885Z,99.90
2022-08-14T04:28:02.471Z,99.90
2022-08-14T04:30:42.246Z,99.90
2022-08-14T04:33:17.166Z,99.90
2022-08-14T04:35:56.915Z,99.90
2022-08-14T04:38:43.081Z,99.90
2022-08-14T04:41:33.035Z,99.90
2022-08-14T04:43:59.829Z,99.90
2022-08-14T04:46:55.318Z,99.90
2022-08-14T04:49:15.525Z,99.90
2022-08-14T04:51:46.898Z,99.90
2022-08-14T04:54:27.216Z,99.90
2022-08-14T04:56:57.621Z,99.90
2022-08-14T04:59:25.207Z,99.90
2022-08-14T05:01:56.918Z,99.90
2022-08-14T05:04:25.023Z,99.90
2022-08-14T05:06:55.143Z,99.90
2022-08-14T05:09:24.255Z,99.90
2022-08-14T05:11:51.594Z,99.90
2022-08-14T05:14:46.034Z,99.90
2022-08-14T05:17:10.516Z,99.90
2022-08-14T05:19:44.769Z,99.90
2022-08-14T05:22:27.020Z,99.90
2022-08-14T05:24:54.468Z,99.90
2022-08-14T05:27:22.902Z,99.90
2022-08-14T05:29:52.982Z,99.90
2022-08-14T05:32:20.245Z,99.90
2022-08-14T05:34:47.384Z,99.90
2022-08-14T05:37:15.348Z,99.90
2022-08-14T05:39:43.336Z,99.90
2022-08-14T05:42:21.992Z,99.90
2022-08-14T05:44:55.509Z,99.90
2022-08-14T05:47:23.493Z,99.90
2022-08-14T05:49:51.669Z,99.90
2022-08-14T05:52:26.395Z,99.90
2022-08-14T05:55:09.600Z,99.90
2022-08-14T05:57:50.097Z,99.90
2022-08-14T06:00:24.984Z,99.90
2022-08-14T06:02:56.774Z,99.90
2022-08-14T06:05:24.451Z,99.90
2022-08-14T06:07:57.431Z,99.90
2022-08-14T06:10:24.299Z,98.50
2022-08-14T06:12:55.530Z,98.20
2022-08-14T06:15:32.505Z,96.30
2022-08-14T06:18:00.623Z,94.70
2022-08-14T06:20:30.121Z,93.90
2022-08-14T06:22:57.446Z,92.20
2022-08-14T06:25:26.753Z,91.80
2022-08-14T06:27:55.092Z,91.20
2022-08-14T06:30:30.279Z,91.90
2022-08-14T06:33:15.688Z,91.80
2022-08-14T06:35:43.338Z,90.90
2022-08-14T06:38:18.723Z,91.60
2022-08-14T06:40:46.201Z,93.00
2022-08-14T06:43:15.511Z,93.00
2022-08-14T06:45:53.701Z,93.60
2022-08-14T06:48:24.089Z,93.50
2022-08-14T06:50:57.970Z,94.10
2022-08-14T06:53:27.858Z,95.40
2022-08-14T06:55:59.529Z,96.50
2022-08-14T06:58:29.170Z,96.80
2022-08-14T07:01:16.074Z,97.20
2022-08-14T07:04:01.340Z,97.10
2022-08-14T07:06:46.242Z,98.00
2022-08-14T07:09:19.820Z,97.40
2022-08-14T07:11:49.733Z,97.70
2022-08-14T07:14:16.542Z,95.60
2022-08-14T07:16:43.492Z,93.60
2022-08-14T07:19:11.518Z,91.10
2022-08-14T07:21:39.516Z,92.30
2022-08-14T07:24:09.776Z,93.90
2022-08-14T07:26:49.141Z,93.60
2022-08-14T07:29:17.701Z,91.80
2022-08-14T07:31:49.555Z,90.30
2022-08-14T07:34:35.918Z,87.50
2022-08-14T07:37:03.812Z,82.60
2022-08-14T07:39:30.652Z,80.60
2022-08-14T07:42:01.912Z,80.60
2022-08-14T07:44:36.114Z,80.20
2022-08-14T07:47:15.859Z,78.50
2022-08-14T07:50:08.143Z,78.80
2022-08-14T07:52:38.269Z,78.00
2022-08-14T07:55:06.552Z,74.80
2022-08-14T07:57:33.633Z,74.50
2022-08-14T08:00:01.598Z,77.20
2022-08-14T08:02:44.226Z,75.70
2022-08-14T08:05:14.397Z,75.50
2022-08-14T08:07:44.355Z,76.70
2022-08-14T08:11:01.990Z,76.60
2022-08-14T08:13:23.968Z,73.50
2022-08-14T08:15:54.041Z,74.70
2022-08-14T08:18:29.045Z,73.80
2022-08-14T08:20:59.480Z,73.40
2022-08-14T08:23:39.978Z,72.40
2022-08-14T08:26:07.787Z,72.20
2022-08-14T08:28:34.745Z,72.50
2022-08-14T08:31:05.686Z,73.40
2022-08-14T08:33:37.270Z,74.70
2022-08-14T08:36:12.908Z,74.60
2022-08-14T08:39:15.789Z,73.80
2022-08-14T08:41:43.470Z,72.00
2022-08-14T08:44:17.313Z,71.60
2022-08-14T08:47:01.621Z,74.70
2022-08-14T08:49:43.257Z,75.20
2022-08-14T08:52:24.893Z,75.30
2022-08-14T08:54:57.937Z,74.90
2022-08-14T08:57:26.119Z,76.10
2022-08-14T08:59:55.116Z,76.00
2022-08-14T09:02:26.157Z,77.20
2022-08-14T09:05:02.059Z,77.70
2022-08-14T09:07:28.956Z,76.10
2022-08-14T09:09:59.135Z,77.50
2022-08-14T09:12:32.278Z,77.30
2022-08-14T09:15:12.154Z,75.20
2022-08-14T09:17:42.115Z,72.60
2022-08-14T09:20:11.604Z,72.20
2022-08-14T09:22:48.241Z,73.30
2022-08-14T09:25:17.392Z,72.00
2022-08-14T09:27:47.616Z,73.50
2022-08-14T09:30:32.286Z,72.10
2022-08-14T09:33:08.989Z,72.10
2022-08-14T09:36:20.533Z,68.60
2022-08-14T09:39:21.095Z,70.90
2022-08-14T09:42:21.649Z,73.90
2022-08-14T09:45:09.158Z,68.80
2022-08-14T09:47:46.615Z,68.00
2022-08-14T09:50:20.046Z,66.40
2022-08-14T09:52:54.967Z,65.00
2022-08-14T09:55:25.905Z,64.80
2022-08-14T09:58:19.640Z,66.20
2022-08-14T10:00:59.364Z,67.30
2022-08-14T10:03:34.260Z,67.90
2022-08-14T10:06:07.336Z,67.30
2022-08-14T10:08:50.911Z,70.00
2022-08-14T10:11:23.083Z,69.90
2022-08-14T10:13:54.264Z,64.40
2022-08-14T10:16:33.000Z,66.00
2022-08-14T10:19:09.359Z,66.10
2022-08-14T10:21:58.657Z,63.30
2022-08-14T10:24:37.178Z,62.80
2022-08-14T10:27:05.483Z,63.40
2022-08-14T10:29:38.390Z,65.10
2022-08-14T10:32:17.778Z,64.00
2022-08-14T10:34:46.601Z,64.00
2022-08-14T10:37:23.783Z,65.60
2022-08-14T10:40:05.593Z,64.70
2022-08-14T10:42:40.354Z,62.90
2022-08-14T10:45:25.726Z,62.00
2022-08-14T10:48:08.621Z,61.20
2022-08-14T10:50:41.342Z,60.30
2022-08-14T10:53:09.381Z,62.00
2022-08-14T10:55:45.418Z,62.20
2022-08-14T10:58:13.963Z,62.60
2022-08-14T11:00:56.612Z,63.80
2022-08-14T11:03:35.993Z,61.10
2022-08-14T11:06:20.134Z,60.40
2022-08-14T11:08:48.743Z,62.40
2022-08-14T11:11:18.692Z,64.00
2022-08-14T11:13:46.485Z,63.30
2022-08-14T11:16:16.922Z,64.20
2022-08-14T11:18:50.819Z,63.50
2022-08-14T11:21:21.213Z,63.00
2022-08-14T11:23:49.376Z,61.40
2022-08-14T11:26:24.022Z,60.90
2022-08-14T11:28:52.103Z,60.10
2022-08-14T11:31:24.096Z,59.00
2022-08-14T11:33:57.873Z,60.90
2022-08-14T11:37:02.157Z,59.70
2022-08-14T11:39:33.820Z,59.10
2022-08-14T11:42:55.354Z,59.40
2022-08-14T11:44:56.614Z,59.30
2022-08-14T11:47:27.359Z,58.00
2022-08-14T11:50:13.347Z,57.60
2022-08-14T11:52:40.649Z,59.20
2022-08-14T11:55:13.493Z,57.70
2022-08-14T11:57:42.385Z,58.30
2022-08-14T12:00:31.548Z,58.80
2022-08-14T12:03:04.287Z,58.80
2022-08-14T12:05:39.694Z,57.50
2022-08-14T12:08:12.110Z,57.40
2022-08-14T12:10:43.991Z,57.80
2022-08-14T12:13:17.630Z,58.60
2022-08-14T12:15:48.938Z,58.90
2022-08-14T12:18:30.663Z,59.50
2022-08-14T12:20:59.358Z,59.70
2022-08-14T12:23:27.710Z,60.70
2022-08-14T12:26:12.169Z,62.90
2022-08-14T12:29:08.516Z,61.10
2022-08-14T12:31:44.946Z,60.00
2022-08-14T12:34:20.560Z,59.90
2022-08-14T12:36:50.321Z,59.70
2022-08-14T12:39:18.911Z,58.60
2022-08-14T12:41:57.101Z,58.00
2022-08-14T12:44:33.995Z,58.90
2022-08-14T12:47:13.508Z,58.40
2022-08-14T12:49:52.466Z,59.50
2022-08-14T12:52:41.771Z,58.40
2022-08-14T12:55:21.119Z,58.10
2022-08-14T12:57:53.506Z,57.50
2022-08-14T13:00:25.381Z,58.20
2022-08-14T13:02:55.117Z,58.60
2022-08-14T13:05:29.917Z,58.20
2022-08-14T13:07:59.080Z,57.80
2022-08-14T13:10:52.062Z,59.50
2022-08-14T13:13:19.722Z,59.60
2022-08-14T13:15:56.296Z,59.90
2022-08-14T13:18:27.961Z,61.20
2022-08-14T13:21:01.046Z,60.60
2022-08-14T13:23:33.743Z,60.80
2022-08-14T13:26:03.720Z,60.60
2022-08-14T13:28:34.285Z,61.10
2022-08-14T13:31:11.754Z,61.80
2022-08-14T13:33:40.785Z,61.10
2022-08-14T13:36:10.205Z,63.10
2022-08-14T13:38:51.132Z,62.70
2022-08-14T13:41:28.006Z,62.40
2022-08-14T13:44:00.272Z,62.20
2022-08-14T13:46:27.943Z,63.50
2022-08-14T13:48:56.355Z,66.50
2022-08-14T13:51:31.972Z,68.50
2022-08-14T13:54:10.943Z,68.80
2022-08-14T13:56:41.948Z,69.10
2022-08-14T13:59:09.843Z,68.70
2022-08-14T14:01:42.978Z,69.50
2022-08-14T14:04:19.467Z,69.60
2022-08-14T14:06:49.083Z,70.30
2022-08-14T14:09:21.421Z,70.70
2022-08-14T14:11:53.071Z,72.20
2022-08-14T14:14:45.193Z,71.50
2022-08-14T14:17:12.479Z,71.30
2022-08-14T14:19:41.379Z,70.40
2022-08-14T14:22:09.837Z,70.90
2022-08-14T14:24:37.524Z,70.40
2022-08-14T14:27:38.962Z,72.20
2022-08-14T14:29:55.496Z,74.20
2022-08-14T14:32:31.990Z,76.10
2022-08-14T14:35:02.637Z,75.40
2022-08-14T14:37:30.984Z,76.10
2022-08-14T14:40:52.590Z,77.20
2022-08-14T14:42:51.919Z,77.60
2022-08-14T14:45:23.413Z,79.60
2022-08-14T14:47:59.460Z,79.20
2022-08-14T14:50:26.564Z,80.50
2022-08-14T14:53:12.444Z,80.40
2022-08-14T14:56:48.201Z,79.60
2022-08-14T14:58:30.982Z,81.30
2022-08-14T15:01:03.727Z,82.10
2022-08-14T15:03:41.699Z,80.20
2022-08-14T15:06:09.085Z,80.50
2022-08-14T15:08:56.377Z,82.00
2022-08-14T15:11:26.202Z,82.50
2022-08-14T15:13:57.303Z,81.10
2022-08-14T15:16:24.800Z,80.60
2022-08-14T15:18:52.922Z,79.90
2022-08-14T15:21:20.022Z,80.60
2022-08-14T15:23:48.056Z,79.00
2022-08-14T15:26:30.892Z,79.10
2022-08-14T15:29:02.966Z,78.70
2022-08-14T15:31:36.081Z,78.40
2022-08-14T15:34:45.698Z,78.10
2022-08-14T15:37:00.940Z,80.00
2022-08-14T15:39:29.488Z,80.20
2022-08-14T15:42:01.907Z,81.30
2022-08-14T15:44:34.011Z,80.40
2022-08-14T15:47:06.950Z,81.40
2022-08-14T15:49:35.010Z,81.10
2022-08-14T15:52:03.429Z,81.50
2022-08-14T15:54:31.549Z,81.10
2022-08-14T15:57:08.288Z,81.20
2022-08-14T15:59:55.599Z,82.50
2022-08-14T16:02:24.411Z,82.10
2022-08-14T16:04:55.238Z,81.50
2022-08-14T16:07:25.181Z,80.60
2022-08-14T16:10:11.895Z,79.50
2022-08-14T16:12:47.412Z,80.30
2022-08-14T16:15:16.649Z,81.00
2022-08-14T16:17:44.843Z,80.90
2022-08-14T16:20:12.554Z,81.50
2022-08-14T16:23:00.571Z,78.00
2022-08-14T16:25:35.578Z,78.10
2022-08-14T16:28:03.557Z,78.10
2022-08-14T16:30:34.285Z,79.20
2022-08-14T16:33:05.306Z,79.50
2022-08-14T16:35:42.448Z,79.00
2022-08-14T16:38:46.519Z,80.10
2022-08-14T16:41:27.071Z,80.30
2022-08-14T16:44:01.254Z,80.60
2022-08-14T16:46:31.571Z,80.30
2022-08-14T16:49:00.800Z,79.50
2022-08-14T16:51:30.850Z,80.80
2022-08-14T16:54:03.635Z,81.60
2022-08-14T16:56:48.065Z,82.30
2022-08-14T16:59:20.732Z,83.00
2022-08-14T17:02:00.717Z,83.40
2022-08-14T17:04:34.615Z,84.00
2022-08-14T17:07:13.431Z,84.60
2022-08-14T17:09:45.579Z,84.60
2022-08-14T17:12:33.780Z,84.80
2022-08-14T17:15:14.882Z,85.10
2022-08-14T17:17:57.812Z,85.30
2022-08-14T17:20:53.504Z,85.80
2022-08-14T17:23:13.633Z,85.90
2022-08-14T17:25:51.249Z,86.50
2022-08-14T17:28:51.361Z,87.60
2022-08-14T17:31:12.087Z,88.00
2022-08-14T17:33:40.930Z,88.40
2022-08-14T17:36:22.462Z,88.70
2022-08-14T17:39:07.580Z,89.00
2022-08-14T17:44:48.176Z,89.40
2022-08-14T17:47:18.157Z,90.00
2022-08-14T17:49:52.158Z,90.50
2022-08-14T17:52:34.126Z,90.80
2022-08-14T17:55:06.555Z,91.10
2022-08-14T17:57:35.375Z,91.40
2022-08-14T18:00:12.494Z,91.50
2022-08-14T18:02:51.221Z,91.60
2022-08-14T18:05:23.703Z,91.70
2022-08-14T18:08:32.524Z,91.80
2022-08-14T18:10:56.417Z,91.90
2022-08-14T18:13:49.936Z,91.90
2022-08-14T18:16:19.739Z,91.90
2022-08-14T18:18:49.679Z,92.30
2022-08-14T18:21:24.074Z,92.40
2022-08-14T18:23:52.698Z,92.60
2022-08-14T18:26:37.208Z,92.70
2022-08-14T18:29:14.942Z,92.80
2022-08-14T18:31:45.453Z,93.00
2022-08-14T18:34:31.574Z,93.10
2022-08-14T18:37:14.374Z,93.20
2022-08-14T18:40:01.310Z,93.20
2022-08-14T18:42:30.557Z,93.40
2022-08-14T18:45:00.974Z,93.50
2022-08-14T18:47:32.724Z,93.60
2022-08-14T18:50:30.875Z,93.60
2022-08-14T18:53:11.119Z,93.80
2022-08-14T18:55:52.659Z,93.90
2022-08-14T18:58:28.030Z,93.90
2022-08-14T19:01:04.599Z,94.10
2022-08-14T19:03:37.066Z,94.10
2022-08-14T19:06:10.819Z,94.20
2022-08-14T19:08:47.709Z,94.20
2022-08-14T19:11:34.247Z,94.30
2022-08-14T19:14:04.772Z,94.40
2022-08-14T19:16:37.377Z,94.50
2022-08-14T19:19:12.488Z,94.60
2022-08-14T19:21:55.153Z,94.60
2022-08-14T19:24:34.474Z,94.80
2022-08-14T19:27:26.250Z,94.80
2022-08-14T19:30:23.162Z,94.80
2022-08-14T19:32:57.839Z,94.80
2022-08-14T19:35:48.676Z,94.90
2022-08-14T19:38:51.963Z,94.80
2022-08-14T19:41:40.612Z,94.90
2022-08-14T19:44:20.072Z,95.10
2022-08-14T19:47:06.176Z,95.30
2022-08-14T19:50:25.054Z,95.40
2022-08-14T19:52:39.771Z,95.60
2022-08-14T19:55:19.128Z,95.90
2022-08-14T19:57:57.963Z,96.30
2022-08-14T20:00:29.341Z,98.20
2022-08-14T20:03:12.057Z,98.90
2022-08-14T20:05:42.958Z,99.90
2022-08-14T20:10:59.869Z,99.90
2022-08-14T20:11:21.002Z,99.90
2022-08-14T20:14:20.927Z,99.90
2022-08-14T20:17:01.705Z,99.90
2022-08-14T20:19:37.582Z,99.90
2022-08-14T20:22:35.085Z,99.90
2022-08-14T20:24:56.475Z,99.90
2022-08-14T20:27:33.951Z,99.90
2022-08-14T20:30:29.827Z,99.90
2022-08-14T20:33:07.948Z,99.90
2022-08-14T20:35:43.311Z,99.90
2022-08-14T20:38:30.229Z,99.90
2022-08-14T20:41:00.087Z,99.90
2022-08-14T20:43:52.771Z,99.90
2022-08-14T20:46:23.501Z,99.90
2022-08-14T20:49:06.640Z,99.90
2022-08-14T20:51:37.157Z,99.90
2022-08-14T20:54:09.924Z,99.90
2022-08-14T20:56:40.499Z,99.90
2022-08-14T20:59:19.418Z,99.90
2022-08-14T21:01:55.221Z,99.90
2022-08-14T21:04:31.997Z,99.90
2022-08-14T21:07:24.746Z,99.90
2022-08-14T21:10:33.758Z,99.90
2022-08-14T21:13:26.067Z,99.90
2022-08-14T21:15:56.883Z,99.90
2022-08-14T21:18:31.818Z,99.90
2022-08-14T21:21:07.023Z,99.90
2022-08-14T21:23:54.077Z,99.90
2022-08-14T21:26:50.537Z,99.90
2022-08-14T21:29:23.735Z,99.90
2022-08-14T21:31:55.844Z,99.90
2022-08-14T21:34:27.102Z,99.90
2022-08-14T21:36:57.811Z,99.90
2022-08-14T21:39:25.064Z,99.90
2022-08-14T21:41:58.688Z,99.90
2022-08-14T21:44:42.675Z,99.90
2022-08-14T21:47:13.271Z,99.90
2022-08-14T21:49:46.146Z,99.90
2022-08-14T21:52:49.723Z,99.90
2022-08-14T21:55:09.881Z,99.90
2022-08-14T21:57:56.712Z,99.90
2022-08-14T22:00:39.531Z,99.90
2022-08-14T22:03:13.587Z,99.90
2022-08-14T22:05:42.235Z,99.90
2022-08-14T22:08:14.051Z,99.90
2022-08-14T22:10:46.925Z,99.90
2022-08-14T22:13:22.594Z,99.90
2022-08-14T22:15:54.322Z,99.90
2022-08-14T22:18:25.708Z,99.90
2022-08-14T22:20:56.433Z,99.90
2022-08-14T22:23:25.876Z,99.90
2022-08-14T22:25:53.612Z,99.90
2022-08-14T22:28:25.145Z,99.90
2022-08-14T22:30:55.002Z,99.90
2022-08-14T22:33:26.654Z,99.90
2022-08-14T22:35:59.544Z,99.90
2022-08-14T22:38:36.779Z,99.90
2022-08-14T22:41:26.981Z,99.90
2022-08-14T22:43:59.232Z,99.90
2022-08-14T22:46:27.139Z,99.90
2022-08-14T22:48:55.072Z,99.90
2022-08-14T22:51:27.488Z,99.90
2022-08-14T22:53:56.103Z,99.90
2022-08-14T22:56:30.041Z,99.90
2022-08-14T22:59:01.217Z,99.90
2022-08-14T23:01:56.676Z,99.90
2022-08-14T23:04:35.033Z,99.90
2022-08-14T23:07:21.848Z,99.90
2022-08-14T23:09:56.210Z,99.90
2022-08-14T23:12:28.756Z,99.90
2022-08-14T23:14:57.352Z,99.90
2022-08-14T23:17:24.455Z,99.90
2022-08-14T23:19:56.471Z,99.90
2022-08-14T23:22:26.103Z,99.90
2022-08-14T23:24:58.021Z,99.90
2022-08-14T23:27:32.017Z,99.90
2022-08-14T23:30:31.498Z,99.90
2022-08-14T23:33:02.147Z,99.90
2022-08-14T23:35:32.975Z,99.90
2022-08-14T23:38:01.897Z,99.90
2022-08-14T23:40:31.134Z,99.90
2022-08-14T23:43:02.121Z,99.90
2022-08-14T23:45:37.220Z,99.90
2022-08-14T23:48:05.346Z,99.90
2022-08-14T23:50:38.827Z,99.90
2022-08-14T23:53:47.109Z,99.90
2022-08-14T23:56:08.583Z,99.90
2022-08-14T23:58:37.009Z,99.90
